Time;durP1;ratioP1;P1;durP2;ratioP2;P2;SDS_P1;SDS_P2;PMS_P1;PMS_P2;Temp;Humidity;BMP_temperature;BMP_pressure;BME280_temperature;BME280_humidity;BME280_pressure;Samples;Min_cycle;Max_cycle;Signal;HPM_P1;HPM_P2
2021/10/19 00:00:38;;;;;;;1999.90;999.90;;;;;;;7.49;50.07;101687.44;5067267;27;100353;-70
2021/10/19 00:03:08;;;;;;;1999.90;999.90;;;;;;;7.49;50.14;101690.09;5062833;27;96811;-70
2021/10/19 00:05:36;;;;;;;1999.90;999.90;;;;;;;7.48;49.77;101679.44;5063237;27;97069;-71
2021/10/19 00:08:04;;;;;;;1999.90;999.90;;;;;;;7.46;50.23;101671.44;5065436;27;101063;-70
2021/10/19 00:10:32;;;;;;;1999.90;999.90;;;;;;;7.45;49.93;101666.97;5050435;27;100357;-70
2021/10/19 00:13:00;;;;;;;1999.90;999.90;;;;;;;7.44;50.30;101667.78;5067009;27;97092;-71
2021/10/19 00:15:29;;;;;;;1999.90;999.90;;;;;;;7.43;50.39;101675.66;5062398;27;97647;-71
2021/10/19 00:17:57;;;;;;;1999.90;999.90;;;;;;;7.42;50.38;101682.69;5046876;27;99437;-69
2021/10/19 00:20:24;;;;;;;1999.90;999.90;;;;;;;7.39;50.28;101669.28;5065115;27;99371;-70
2021/10/19 00:22:52;;;;;;;1999.90;999.90;;;;;;;7.37;50.33;101670.03;5048945;27;96698;-69
2021/10/19 00:25:20;;;;;;;1999.90;999.90;;;;;;;7.36;50.18;101657.66;5046414;27;97755;-72
2021/10/19 00:27:49;;;;;;;1999.90;999.90;;;;;;;7.35;50.23;101651.44;5067023;27;100374;-71
2021/10/19 00:30:17;;;;;;;1999.90;999.90;;;;;;;7.37;50.31;101635.63;5054994;27;100660;-71
2021/10/19 00:32:46;;;;;;;1999.90;999.90;;;;;;;7.37;50.58;101633.88;5066567;27;97341;-72
2021/10/19 00:35:14;;;;;;;1999.90;999.90;;;;;;;7.36;50.36;101632.09;5046714;27;97137;-72
2021/10/19 00:37:42;;;;;;;1999.90;999.90;;;;;;;7.37;50.61;101648.84;5065893;27;100576;-72
2021/10/19 00:40:10;;;;;;;1999.90;999.90;;;;;;;7.36;50.45;101647.97;5065761;27;96818;-72
2021/10/19 00:42:39;;;;;;;1999.90;999.90;;;;;;;7.36;50.61;101665.59;5063372;27;97199;-72
2021/10/19 00:45:08;;;;;;;1999.90;999.90;;;;;;;7.33;50.56;101662.81;5065518;27;97641;-72
2021/10/19 00:47:40;;;;;;;1999.90;999.90;;;;;;;7.29;50.72;101656.44;5058551;27;99061;-71
2021/10/19 00:50:10;;;;;;;1999.90;999.90;;;;;;;7.25;50.84;101655.38;5061617;27;97539;-71
2021/10/19 00:52:37;;;;;;;1999.90;999.90;;;;;;;7.26;50.94;101661.59;5060638;27;97386;-71
2021/10/19 00:55:06;;;;;;;1999.90;999.90;;;;;;;7.26;50.63;101677.47;5065873;27;98606;-72
2021/10/19 00:57:34;;;;;;;1999.90;999.90;;;;;;;7.23;50.67;101675.59;5062267;27;96828;-72
2021/10/19 01:00:02;;;;;;;1999.90;999.90;;;;;;;7.24;50.66;101658.88;5065628;27;97558;-72
2021/10/19 01:02:29;;;;;;;1999.90;999.90;;;;;;;7.25;51.02;101668.59;5068264;27;97092;-71
2021/10/19 01:04:58;;;;;;;1999.90;999.90;;;;;;;7.24;50.79;101674.75;5066601;27;96884;-72
2021/10/19 01:07:27;;;;;;;1999.90;999.90;;;;;;;7.24;50.99;101658.88;5064522;27;100042;-71
2021/10/19 01:09:55;;;;;;;1999.90;999.90;;;;;;;7.24;50.73;101655.31;5044439;27;96967;-71
2021/10/19 01:12:24;;;;;;;1999.90;999.90;;;;;;;7.26;50.97;101651.00;5046307;27;97342;-72
2021/10/19 01:14:52;;;;;;;1999.90;999.90;;;;;;;7.28;50.81;101641.38;5046818;27;96925;-73
2021/10/19 01:17:20;;;;;;;1999.90;999.90;;;;;;;7.30;50.74;101644.09;5063638;27;97288;-71
2021/10/19 01:19:50;;;;;;;1999.90;999.90;;;;;;;7.28;50.63;101638.75;5047158;27;97579;-71
2021/10/19 01:22:18;;;;;;;1999.90;999.90;;;;;;;7.28;50.88;101649.34;5064553;27;98037;-72
2021/10/19 01:24:46;;;;;;;1999.90;999.90;;;;;;;7.27;51.02;101661.66;5061325;27;97199;-71
2021/10/19 01:27:14;;;;;;;1999.90;999.90;;;;;;;7.26;50.75;101656.28;5046286;27;97181;-72
2021/10/19 01:29:41;;;;;;;1999.90;999.90;;;;;;;7.24;50.98;101657.94;5049029;27;99790;-71
2021/10/19 01:32:09;;;;;;;1999.90;999.90;;;;;;;7.25;50.98;101670.38;5064103;27;97474;-71
2021/10/19 01:34:37;;;;;;;1999.90;999.90;;;;;;;7.25;50.80;101665.06;5042590;27;97262;-71
2021/10/19 01:37:06;;;;;;;1999.90;999.90;;;;;;;7.26;50.81;101669.53;5062953;27;97838;-71
2021/10/19 01:39:34;;;;;;;1999.90;999.90;;;;;;;7.27;50.83;101655.47;5062302;27;98996;-72
2021/10/19 01:42:02;;;;;;;1999.90;999.90;;;;;;;7.30;50.67;101662.63;5062740;27;96744;-71
2021/10/19 01:44:30;;;;;;;1999.90;999.90;;;;;;;7.28;50.42;101662.56;5046801;27;97215;-71
2021/10/19 01:46:57;;;;;;;1999.90;999.90;;;;;;;7.21;50.73;101668.41;5060228;27;99322;-70
2021/10/19 01:49:25;;;;;;;1999.90;999.90;;;;;;;7.16;51.09;101670.81;5062906;27;98389;-70
2021/10/19 01:51:54;;;;;;;1999.90;999.90;;;;;;;7.14;51.07;101671.59;5061253;27;96653;-69
2021/10/19 01:54:25;;;;;;;1999.90;999.90;;;;;;;7.10;51.34;101665.25;5045816;27;96799;-70
2021/10/19 01:56:53;;;;;;;1999.90;999.90;;;;;;;7.09;51.47;101658.13;5061137;27;98759;-72
2021/10/19 01:59:21;;;;;;;1999.90;999.90;;;;;;;7.08;51.19;101655.41;5062277;27;99285;-70
2021/10/19 02:01:50;;;;;;;1999.90;999.90;;;;;;;7.07;51.31;101658.88;5059191;27;96739;-70
2021/10/19 02:04:18;;;;;;;1999.90;999.90;;;;;;;7.08;51.42;101656.31;5042013;27;97168;-71
2021/10/19 02:06:46;;;;;;;1999.90;999.90;;;;;;;7.09;51.56;101657.22;5059232;27;99137;-70
2021/10/19 02:09:14;;;;;;;1999.90;999.90;;;;;;;7.11;51.39;101650.25;5043872;27;100614;-71
2021/10/19 02:11:43;;;;;;;1999.90;999.90;;;;;;;7.10;51.52;101648.44;5064591;27;97354;-71
2021/10/19 02:14:10;;;;;;;1999.90;999.90;;;;;;;7.12;51.50;101646.78;5060494;27;96828;-71
2021/10/19 02:16:38;;;;;;;1999.90;999.90;;;;;;;7.12;51.54;101636.19;5059569;27;99634;-73
2021/10/19 02:19:06;;;;;;;1999.90;999.90;;;;;;;7.12;51.02;101638.84;5062556;27;99157;-72
2021/10/19 02:21:37;;;;;;;1999.90;999.90;;;;;;;7.11;51.40;101626.41;5065198;27;97341;-71
2021/10/19 02:24:06;;;;;;;1999.90;999.90;;;;;;;7.07;51.52;101619.19;5047906;27;97233;-71
2021/10/19 02:26:34;;;;;;;1999.90;999.90;;;;;;;7.08;51.40;101613.06;5058238;27;101973;-72
2021/10/19 02:29:03;;;;;;;1999.90;999.90;;;;;;;7.06;51.38;101620.94;5047218;27;98393;-71
2021/10/19 02:31:31;;;;;;;1999.90;999.90;;;;;;;7.06;51.67;101620.94;5063009;27;96867;-70
2021/10/19 02:33:59;;;;;;;1999.90;999.90;;;;;;;7.07;51.31;101613.91;5061478;27;96861;-71
2021/10/19 02:36:27;;;;;;;1999.90;999.90;;;;;;;7.07;51.35;101612.13;5064916;27;97399;-72
2021/10/19 02:38:55;;;;;;;1999.90;999.90;;;;;;;7.09;51.23;101612.25;5052519;27;99453;-70
2021/10/19 02:41:22;;;;;;;1999.90;999.90;;;;;;;7.11;51.32;101610.53;5062262;27;97061;-71
2021/10/19 02:43:50;;;;;;;1999.90;999.90;;;;;;;7.11;51.54;101602.59;5061432;27;97781;-71
2021/10/19 02:46:20;;;;;;;1999.90;999.90;;;;;;;7.11;51.55;101597.31;5061963;27;97821;-71
2021/10/19 02:48:49;;;;;;;1999.90;999.90;;;;;;;7.10;51.66;101587.56;5063331;27;98035;-71
2021/10/19 02:51:17;;;;;;;1999.90;999.90;;;;;;;7.08;51.22;101592.81;5065750;27;96936;-71
2021/10/19 02:53:45;;;;;;;1999.90;999.90;;;;;;;7.07;51.52;101590.09;5064477;27;97461;-71
2021/10/19 02:56:12;;;;;;;1999.90;999.90;;;;;;;7.06;51.44;101586.53;5060174;27;99609;-71
2021/10/19 02:58:40;;;;;;;1999.90;999.90;;;;;;;7.07;51.57;101590.97;5058942;27;100696;-70
2021/10/19 03:01:08;;;;;;;1999.90;999.90;;;;;;;7.06;51.54;101589.16;5044517;27;98178;-70
2021/10/19 03:03:38;;;;;;;1999.90;999.90;;;;;;;7.10;51.50;101590.22;5044393;27;96953;-69
2021/10/19 03:06:06;;;;;;;1999.90;999.90;;;;;;;7.10;51.70;101582.28;5057363;27;98027;-71
2021/10/19 03:08:34;;;;;;;1999.90;999.90;;;;;;;7.10;51.45;101576.97;5062315;27;99468;-72
2021/10/19 03:11:02;;;;;;;1999.90;999.90;;;;;;;7.13;51.60;101583.34;5063187;27;97286;-72
2021/10/19 03:13:35;;;;;;;1999.90;999.90;;;;;;;7.12;51.55;101580.63;5044723;27;96829;-71
2021/10/19 03:16:14;;;;;;;1999.90;999.90;;;;;;;7.11;51.33;101586.72;5043839;27;96861;-71
2021/10/19 03:18:44;;;;;;;1999.90;999.90;;;;;;;7.10;51.27;101591.13;5058764;27;98917;-69
2021/10/19 03:21:11;;;;;;;1999.90;999.90;;;;;;;7.08;51.17;101597.19;5061631;27;97739;-70
2021/10/19 03:23:39;;;;;;;1999.90;999.90;;;;;;;7.06;51.68;101599.75;5062938;27;96903;-69
2021/10/19 03:26:07;;;;;;;1999.90;999.90;;;;;;;7.04;51.49;101598.78;5062181;27;98823;-71
2021/10/19 03:28:35;;;;;;;1999.90;999.90;;;;;;;7.03;51.86;101604.91;5061270;27;99171;-69
2021/10/19 03:31:02;;;;;;;1999.90;999.90;;;;;;;7.01;51.43;101603.00;5060577;27;97206;-70
2021/10/19 03:33:30;;;;;;;1999.90;999.90;;;;;;;6.98;51.41;101601.09;5061080;27;97547;-70
2021/10/19 03:36:00;;;;;;;1999.90;999.90;;;;;;;6.99;51.80;101597.66;5061685;27;99508;-70
2021/10/19 03:38:28;;;;;;;1999.90;999.90;;;;;;;7.00;51.69;101593.25;5063107;27;99035;-69
2021/10/19 03:40:56;;;;;;;1999.90;999.90;;;;;;;7.01;51.58;101590.69;5064012;27;97798;-69
2021/10/19 03:43:24;;;;;;;1999.90;999.90;;;;;;;7.02;51.59;101581.91;5060963;27;98909;-69
2021/10/19 03:45:52;;;;;;;1999.90;999.90;;;;;;;7.03;51.67;101575.81;5060376;27;98041;-71
2021/10/19 03:48:20;;;;;;;1999.90;999.90;;;;;;;7.04;51.52;101576.69;5045116;27;100846;-71
2021/10/19 03:50:48;;;;;;;1999.90;999.90;;;;;;;7.06;51.69;101577.66;5060445;27;96918;-72
2021/10/19 03:53:17;;;;;;;1999.90;999.90;;;;;;;7.08;51.28;101578.66;5042637;27;97876;-71
2021/10/19 03:55:46;;;;;;;1999.90;999.90;;;;;;;7.08;51.73;101570.72;5046448;27;97862;-71
2021/10/19 03:58:14;;;;;;;1999.90;999.90;;;;;;;7.02;51.43;101568.69;5061936;27;98847;-69
2021/10/19 04:00:42;;;;;;;1999.90;999.90;;;;;;;7.01;51.86;101563.31;5059018;27;96860;-72
2021/10/19 04:03:10;;;;;;;1999.90;999.90;;;;;;;7.01;51.50;101558.03;5058644;27;97709;-70
2021/10/19 04:05:45;;;;;;;1999.90;999.90;;;;;;;7.02;51.89;101575.69;5058001;27;99147;-71
2021/10/19 04:08:13;;;;;;;1999.90;999.90;;;;;;;7.04;51.57;101574.03;5062483;27;97594;-71
2021/10/19 04:10:42;;;;;;;1999.90;999.90;;;;;;;7.04;51.91;101579.31;5060513;27;97702;-71
2021/10/19 04:13:10;;;;;;;1999.90;999.90;;;;;;;7.08;51.58;101568.97;5060193;27;97694;-70
2021/10/19 04:15:37;;;;;;;1999.90;999.90;;;;;;;7.10;51.77;101567.31;5063724;27;99362;-71
2021/10/19 04:18:05;;;;;;;1999.90;999.90;;;;;;;7.11;51.26;101577.06;5068804;27;99188;-71
2021/10/19 04:20:33;;;;;;;1999.90;999.90;;;;;;;7.11;51.59;101571.75;5065279;27;97051;-71
2021/10/19 04:23:00;;;;;;;1999.90;999.90;;;;;;;7.12;51.64;101572.69;5085073;27;97427;-70
2021/10/19 04:25:28;;;;;;;1999.90;999.90;;;;;;;7.12;51.41;101580.63;5063834;27;98910;-70
2021/10/19 04:27:58;;;;;;;1999.90;999.90;;;;;;;7.15;51.26;101573.72;5064917;27;99782;-71
2021/10/19 04:30:26;;;;;;;1999.90;999.90;;;;;;;7.15;51.74;101581.66;5081648;27;97368;-71
2021/10/19 04:32:54;;;;;;;1999.90;999.90;;;;;;;7.15;51.68;101583.41;5043801;27;96916;-70
2021/10/19 04:35:21;;;;;;;1999.90;999.90;;;;;;;7.16;51.81;101590.53;5061878;27;99217;-70
2021/10/19 04:37:49;;;;;;;1999.90;999.90;;;;;;;7.17;51.70;101584.38;5058953;27;99373;-70
2021/10/19 04:40:17;;;;;;;1999.90;999.90;;;;;;;7.18;51.39;101578.28;5063649;27;96840;-70
2021/10/19 04:42:45;;;;;;;1999.90;999.90;;;;;;;7.19;51.76;101591.56;5063730;27;98244;-70
2021/10/19 04:45:16;;;;;;;1999.90;999.90;;;;;;;7.20;51.63;101592.44;5046125;27;99499;-70
2021/10/19 04:47:44;;;;;;;1999.90;999.90;;;;;;;7.20;51.82;101590.72;5062111;27;100259;-70
2021/10/19 04:50:12;;;;;;;1999.90;999.90;;;;;;;7.20;51.64;101587.16;5061888;27;97538;-70
2021/10/19 04:52:40;;;;;;;1999.90;999.90;;;;;;;7.21;51.66;101579.31;5062115;27;96904;-69
2021/10/19 04:55:09;;;;;;;1999.90;999.90;;;;;;;7.22;51.38;101580.19;5046458;27;99290;-72
2021/10/19 04:57:37;;;;;;;1999.90;999.90;;;;;;;7.22;51.68;101585.50;5046310;27;99250;-69
2021/10/19 05:00:06;;;;;;;1999.90;999.90;;;;;;;7.22;51.75;101569.63;5065769;27;97425;-70
2021/10/19 05:02:42;;;;;;;1999.90;999.90;;;;;;;7.19;51.75;101574.78;5058387;27;96863;-71
2021/10/19 05:05:10;;;;;;;1999.90;999.90;;;;;;;7.20;51.72;101579.22;5057826;27;101034;-70
2021/10/19 05:07:38;;;;;;;1999.90;999.90;;;;;;;7.20;51.60;101576.56;5046009;27;99387;-70
2021/10/19 05:10:06;;;;;;;1999.90;999.90;;;;;;;7.20;51.86;101580.13;5059583;27;97079;-69
2021/10/19 05:12:34;;;;;;;1999.90;999.90;;;;;;;7.20;51.57;101587.16;5060298;27;97554;-70
2021/10/19 05:15:02;;;;;;;1999.90;999.90;;;;;;;7.19;51.70;101573.03;5061252;27;97812;-69
2021/10/19 05:17:30;;;;;;;1999.90;999.90;;;;;;;7.19;51.91;101556.25;5063456;27;96972;-70
2021/10/19 05:19:59;;;;;;;1999.90;999.90;;;;;;;7.21;51.73;101551.94;5066878;27;98101;-69
2021/10/19 05:22:27;;;;;;;1999.90;999.90;;;;;;;7.21;51.62;101550.19;5063099;27;97370;-71
2021/10/19 05:24:55;;;;;;;1999.90;999.90;;;;;;;7.21;51.57;101546.63;5042592;27;100825;-70
2021/10/19 05:27:22;;;;;;;1999.90;999.90;;;;;;;7.22;51.63;101554.66;5063250;27;98786;-70
2021/10/19 05:29:50;;;;;;;1999.90;999.90;;;;;;;7.21;51.51;101546.63;5060223;27;97013;-70
2021/10/19 05:32:18;;;;;;;1999.90;999.90;;;;;;;7.20;51.65;101551.03;5058752;27;97779;-68
2021/10/19 05:34:46;;;;;;;1999.90;999.90;;;;;;;7.20;51.93;101532.50;5060887;27;100581;-70
2021/10/19 05:37:15;;;;;;;1999.90;999.90;;;;;;;7.20;51.49;101545.72;5062880;27;99195;-71
2021/10/19 05:39:44;;;;;;;1999.90;999.90;;;;;;;7.20;51.77;101547.47;5062727;27;98062;-68
2021/10/19 05:42:13;;;;;;;1999.90;999.90;;;;;;;7.20;51.98;101542.16;5061983;27;97844;-71
2021/10/19 05:44:41;;;;;;;1999.90;999.90;;;;;;;7.20;52.02;101539.50;5063598;27;100562;-69
2021/10/19 05:47:08;;;;;;;1999.90;999.90;;;;;;;7.20;51.86;101536.88;5058160;27;98910;-69
2021/10/19 05:49:36;;;;;;;1999.90;999.90;;;;;;;7.20;52.15;101543.06;5060062;27;96954;-71
2021/10/19 05:52:04;;;;;;;1999.90;999.90;;;;;;;7.21;51.70;101536.06;5061371;27;97046;-69
2021/10/19 05:54:34;;;;;;;1999.90;999.90;;;;;;;7.23;51.78;101526.44;5046472;27;98648;-71
2021/10/19 05:57:02;;;;;;;1999.90;999.90;;;;;;;7.23;52.05;101523.81;5059812;27;99768;-69
2021/10/19 05:59:29;;;;;;;1999.90;999.90;;;;;;;7.24;52.07;101520.31;5064445;27;96879;-70
2021/10/19 06:01:59;;;;;;;1999.90;999.90;;;;;;;7.24;51.67;101530.88;5065495;27;97349;-71
2021/10/19 06:04:27;;;;;;;1999.90;999.90;;;;;;;7.24;52.15;101533.53;5046758;27;99387;-70
2021/10/19 06:06:56;;;;;;;1999.90;999.90;;;;;;;7.25;52.03;101541.53;5061904;27;97266;-71
2021/10/19 06:09:24;;;;;;;1999.90;999.90;;;;;;;7.26;51.80;101537.16;5063042;27;96889;-70
2021/10/19 06:11:54;;;;;;;1999.90;999.90;;;;;;;7.26;51.80;101537.16;5062137;27;96865;-70
2021/10/19 06:14:23;;;;;;;1999.90;999.90;;;;;;;7.28;51.99;101538.16;5063361;27;98756;-70
2021/10/19 06:16:51;;;;;;;1999.90;999.90;;;;;;;7.32;52.00;101541.84;5060146;27;98151;-69
2021/10/19 06:19:19;;;;;;;1999.90;999.90;;;;;;;7.33;52.15;101543.66;5042290;27;98997;-69
2021/10/19 06:21:47;;;;;;;1999.90;999.90;;;;;;;7.34;52.10;101548.13;5065381;27;96756;-70
2021/10/19 06:24:15;;;;;;;1999.90;999.90;;;;;;;7.35;51.70;101549.91;5062884;27;99207;-70
2021/10/19 06:26:43;;;;;;;1999.90;999.90;;;;;;;7.38;51.94;101540.41;5046281;27;100606;-70
2021/10/19 06:29:13;;;;;;;1999.90;999.90;;;;;;;7.39;51.45;101542.19;5043455;27;96830;-70
2021/10/19 06:31:41;;;;;;;1999.90;999.90;;;;;;;7.41;51.92;101532.63;5063917;27;97716;-70
2021/10/19 06:34:10;;;;;;;1999.90;999.90;;;;;;;7.43;51.61;101516.78;5064910;27;98975;-71
2021/10/19 06:36:38;;;;;;;1999.90;999.90;;;;;;;7.44;51.65;101524.81;5059470;27;99313;-70
2021/10/19 06:39:06;;;;;;;1999.90;999.90;;;;;;;7.46;51.99;101511.63;5063688;27;97147;-70
2021/10/19 06:41:34;;;;;;;1999.90;999.90;;;;;;;7.47;51.89;101514.38;5062783;27;97094;-71
2021/10/19 06:44:02;;;;;;;1999.90;999.90;;;;;;;7.48;51.87;101508.22;5044575;27;99382;-69
2021/10/19 06:46:51;;;;;;;1999.90;999.90;;;;;;;7.50;51.65;101513.56;5058851;27;100900;-71
2021/10/19 06:49:19;;;;;;;1999.90;999.90;;;;;;;7.50;51.95;101513.56;5062568;27;96910;-69
2021/10/19 06:51:47;;;;;;;1999.90;999.90;;;;;;;7.50;51.81;101501.25;5061745;27;98065;-70
2021/10/19 06:54:15;;;;;;;1999.90;999.90;;;;;;;7.53;51.94;101497.84;5059713;27;98688;-70
2021/10/19 06:56:43;;;;;;;1999.90;999.90;;;;;;;7.54;51.77;101499.66;5060848;27;97700;-70
2021/10/19 06:59:10;;;;;;;1999.90;999.90;;;;;;;7.56;51.94;101512.13;5045734;27;97181;-71
2021/10/19 07:01:38;;;;;;;1999.90;999.90;;;;;;;7.58;51.71;101512.19;5062115;27;97244;-71
2021/10/19 07:04:08;;;;;;;1999.90;999.90;;;;;;;7.60;51.65;101508.75;5062216;27;99723;-70
2021/10/19 07:06:35;;;;;;;1999.90;999.90;;;;;;;7.62;52.01;101509.72;5058987;27;98864;-71
2021/10/19 07:09:03;;;;;;;1999.90;999.90;;;;;;;7.63;51.97;101508.91;5057867;27;97933;-70
2021/10/19 07:11:33;;;;;;;1999.90;999.90;;;;;;;7.66;51.97;101510.78;5060926;27;96895;-70
2021/10/19 07:14:00;;;;;;;1999.90;999.90;;;;;;;7.69;51.86;101503.88;5060792;27;99223;-69
2021/10/19 07:16:28;;;;;;;1999.90;999.90;;;;;;;7.71;51.92;101507.50;5061540;27;98420;-70
2021/10/19 07:18:56;;;;;;;1999.90;999.90;;;;;;;7.74;51.92;101505.00;5059678;27;96763;-70
2021/10/19 07:21:25;;;;;;;1999.90;999.90;;;;;;;7.77;51.61;101513.06;5060852;27;97615;-69
2021/10/19 07:23:53;;;;;;;1999.90;999.90;;;;;;;7.80;51.83;101515.84;5064497;27;98848;-69
2021/10/19 07:26:21;;;;;;;1999.90;999.90;;;;;;;7.82;51.52;101529.19;5065125;27;97626;-70
2021/10/19 07:28:49;;;;;;;1999.90;999.90;;;;;;;7.83;51.56;101531.91;5058137;27;96933;-70
2021/10/19 07:31:17;;;;;;;1999.90;999.90;;;;;;;7.85;51.44;101532.88;5045253;27;96813;-70
2021/10/19 07:33:45;;;;;;;1999.90;999.90;;;;;;;7.88;51.85;101543.59;5062389;27;99108;-69
2021/10/19 07:36:13;;;;;;;1999.90;999.90;;;;;;;7.90;51.66;101533.97;5060283;27;97656;-70
2021/10/19 07:38:42;;;;;;;1999.90;999.90;;;;;;;7.91;51.63;101537.53;5041449;27;96924;-70
2021/10/19 07:41:10;;;;;;;1999.90;999.90;;;;;;;7.92;51.66;101540.25;5042308;27;97059;-69
2021/10/19 07:43:38;;;;;;;1999.90;999.90;;;;;;;7.95;51.47;101539.44;5058811;27;97413;-70
2021/10/19 07:46:05;;;;;;;1999.90;999.90;;;;;;;7.98;51.76;101542.25;5039129;27;97044;-70
2021/10/19 07:48:33;;;;;;;1999.90;999.90;;;;;;;7.99;51.73;101542.31;5063191;27;97422;-69
2021/10/19 07:51:01;;;;;;;1999.90;999.90;;;;;;;8.00;51.76;101533.50;5065806;27;97244;-70
2021/10/19 07:53:29;;;;;;;1999.90;999.90;;;;;;;8.05;51.56;101541.69;5066312;27;97515;-70
2021/10/19 07:55:58;;;;;;;1999.90;999.90;;;;;;;8.02;51.58;101528.31;5064481;27;99919;-69
2021/10/19 07:58:27;;;;;;;1999.90;999.90;;;;;;;8.05;51.83;101536.38;5067359;27;97021;-72
2021/10/19 08:00:55;;;;;;;1999.90;999.90;;;;;;;8.08;51.74;101545.38;5049400;27;96745;-71
2021/10/19 08:03:25;;;;;;;1999.90;999.90;;;;;;;8.16;51.61;101543.06;5065751;27;100021;-69
2021/10/19 08:05:53;;;;;;;1999.90;999.90;;;;;;;8.14;51.72;101528.81;5066559;27;100297;-70
2021/10/19 08:08:21;;;;;;;1999.90;999.90;;;;;;;8.16;51.64;101522.75;5045798;27;97352;-69
2021/10/19 08:10:49;;;;;;;1999.90;999.90;;;;;;;8.20;51.83;101523.78;5047056;27;98556;-69
2021/10/19 08:13:19;;;;;;;1999.90;999.90;;;;;;;8.23;51.58;101518.59;5063591;27;100735;-68
2021/10/19 08:15:47;;;;;;;1999.90;999.90;;;;;;;8.27;51.92;101514.34;5067904;27;97521;-70
2021/10/19 08:18:16;;;;;;;1999.90;999.90;;;;;;;8.36;51.65;101499.72;5049289;27;98267;-69
2021/10/19 08:20:44;;;;;;;1999.90;999.90;;;;;;;8.36;51.84;101504.09;5062098;27;96945;-71
2021/10/19 08:23:12;;;;;;;1999.90;999.90;;;;;;;8.43;51.61;101504.44;5059375;27;100377;-69
2021/10/19 08:25:40;;;;;;;1999.90;999.90;;;;;;;8.45;51.47;101505.41;5046272;27;100263;-71
2021/10/19 08:28:08;;;;;;;1999.90;999.90;;;;;;;8.47;51.60;101503.75;5063148;27;96764;-70
2021/10/19 08:30:37;;;;;;;1999.90;999.90;;;;;;;8.54;51.43;101516.41;5062611;27;96762;-70
2021/10/19 08:33:05;;;;;;;1999.90;999.90;;;;;;;8.58;51.25;101528.97;5062870;27;100818;-70
2021/10/19 08:35:32;;;;;;;1999.90;999.90;;;;;;;8.64;51.32;101515.94;5049883;27;99283;-67
2021/10/19 08:38:01;;;;;;;1999.90;999.90;;;;;;;8.71;51.10;101512.72;5067320;27;97733;-69
2021/10/19 08:40:29;;;;;;;1999.90;999.90;;;;;;;8.79;51.24;101523.59;5064559;27;96781;-72
2021/10/19 08:42:57;;;;;;;1999.90;999.90;;;;;;;8.87;51.25;101517.78;5068085;27;96817;-70
2021/10/19 08:45:28;;;;;;;1999.90;999.90;;;;;;;8.94;50.95;101519.84;5049439;27;98941;-72
2021/10/19 08:47:58;;;;;;;1999.90;999.90;;;;;;;9.02;50.87;101526.31;5065397;27;97032;-71
2021/10/19 08:50:25;;;;;;;1999.90;999.90;;;;;;;9.07;50.81;101513.25;5044760;27;96844;-71
2021/10/19 08:52:53;;;;;;;1999.90;999.90;;;;;;;9.11;50.71;101510.78;5063739;27;99407;-70
2021/10/19 08:55:21;;;;;;;1999.90;999.90;;;;;;;9.17;50.73;101507.44;5064363;27;97800;-72
2021/10/19 08:57:50;;;;;;;1999.90;999.90;;;;;;;9.21;50.55;101499.66;5063383;27;98056;-71
2021/10/19 09:00:17;;;;;;;1999.90;999.90;;;;;;;9.22;50.59;101489.94;5063895;27;97308;-72
2021/10/19 09:02:47;;;;;;;1999.90;999.90;;;;;;;9.30;50.46;101496.44;5061085;27;99556;-69
2021/10/19 09:05:18;;;;;;;1999.90;999.90;;;;;;;9.37;50.33;101501.13;5064349;27;98914;-70
2021/10/19 09:07:57;;;;;;;1999.90;999.90;;;;;;;9.40;50.48;101506.56;5065532;27;97437;-72
2021/10/19 09:10:26;;;;;;;1999.90;999.90;;;;;;;9.46;50.20;101505.88;5063886;27;97200;-71
2021/10/19 09:12:56;;;;;;;1999.90;999.90;;;;;;;9.50;50.05;101508.72;5066135;27;97712;-72
2021/10/19 09:15:28;;;;;;;1999.90;999.90;;;;;;;9.53;50.20;101503.56;5055910;27;98780;-71
2021/10/19 09:18:00;;;;;;;1999.90;999.90;;;;;;;9.52;50.14;101496.41;5062809;27;96980;-69
2021/10/19 09:20:30;;;;;;;1999.90;999.90;;;;;;;9.56;50.15;101503.66;5062337;27;96906;-72
2021/10/19 09:23:00;;;;;;;1999.90;999.90;;;;;;;9.60;50.17;101500.28;5063197;27;99367;-70
2021/10/19 09:25:32;;;;;;;1999.90;999.90;;;;;;;9.64;50.15;101499.53;5061635;27;99297;-70
2021/10/19 09:28:01;;;;;;;1999.90;999.90;;;;;;;9.69;49.93;101494.38;5063755;27;96822;-70
2021/10/19 09:30:34;;;;;;;1999.90;999.90;;;;;;;9.73;49.84;101491.91;5064290;27;98769;-70
2021/10/19 09:33:03;;;;;;;1999.90;999.90;;;;;;;9.79;49.79;101492.09;5060075;27;97127;-69
2021/10/19 09:35:32;;;;;;;1999.90;999.90;;;;;;;9.84;49.83;101484.28;5045993;27;99041;-70
2021/10/19 09:38:02;;;;;;;1999.90;999.90;;;;;;;9.88;49.86;101476.47;5066686;27;97228;-69
2021/10/19 09:40:34;;;;;;;1999.90;999.90;;;;;;;9.93;49.58;101474.88;5065802;27;97308;-70
2021/10/19 09:43:04;;;;;;;1999.90;999.90;;;;;;;9.98;49.65;101467.06;5062060;27;99314;-70
2021/10/19 09:45:33;;;;;;;1999.90;999.90;;;;;;;10.04;49.60;101457.56;5060507;27;99548;-71
2021/10/19 09:48:02;;;;;;;1999.90;999.90;;;;;;;10.11;49.38;101467.53;5045892;27;97209;-69
2021/10/19 09:50:30;;;;;;;1999.90;999.90;;;;;;;10.16;49.32;101463.28;5064127;27;97084;-69
2021/10/19 09:53:01;;;;;;;1999.90;999.90;;;;;;;10.21;49.44;101466.97;5065408;27;100809;-70
2021/10/19 09:55:29;;;;;;;1999.90;999.90;;;;;;;10.27;49.07;101460.97;5066961;27;96744;-70
2021/10/19 09:57:57;;;;;;;1999.90;999.90;;;;;;;10.34;49.17;101470.06;5062044;27;97625;-70
2021/10/19 10:00:27;;;;;;;1999.90;999.90;;;;;;;10.37;49.10;101468.41;5067008;27;96967;-70
2021/10/19 10:02:55;;;;;;;1999.90;999.90;;;;;;;10.43;49.07;101452.66;5048561;27;100860;-70
2021/10/19 10:05:23;;;;;;;1999.90;999.90;;;;;;;10.49;49.03;101452.88;5044694;27;100996;-70
2021/10/19 10:07:51;;;;;;;1999.90;999.90;;;;;;;10.57;48.89;101447.78;5063520;27;97099;-70
2021/10/19 10:10:22;;;;;;;1999.90;999.90;;;;;;;10.65;48.79;101454.28;5045928;27;96868;-70
2021/10/19 10:12:59;;;;;;;1999.90;999.90;;;;;;;10.74;48.67;101446.56;5063079;27;99300;-71
2021/10/19 10:15:31;;;;;;;1999.90;999.90;;;;;;;10.82;48.70;101442.34;5064966;27;99170;-71
2021/10/19 10:18:02;;;;;;;1999.90;999.90;;;;;;;10.90;48.50;101435.53;5043758;27;97622;-70
2021/10/19 10:20:35;;;;;;;1999.90;999.90;;;;;;;10.95;48.42;101445.47;5064095;27;97321;-71
2021/10/19 10:23:19;;;;;;;1999.90;999.90;;;;;;;11.00;48.13;101454.47;5041185;27;99273;-70
2021/10/19 10:25:50;;;;;;;1999.90;999.90;;;;;;;11.04;48.13;101452.81;5059484;27;98815;-70
2021/10/19 10:28:26;;;;;;;1999.90;999.90;;;;;;;11.06;48.37;101445.78;5060008;27;97669;-71
2021/10/19 10:30:54;;;;;;;1999.90;999.90;;;;;;;11.10;48.39;101442.34;5062981;27;96726;-69
2021/10/19 10:33:32;;;;;;;1999.90;999.90;;;;;;;11.14;48.29;101442.47;5045121;27;96944;-69
2021/10/19 10:36:04;;;;;;;1999.90;999.90;;;;;;;11.19;48.22;101440.88;5046403;27;100670;-69
2021/10/19 10:38:32;;;;;;;1999.90;999.90;;;;;;;11.23;48.34;101432.06;5064045;27;97070;-69
2021/10/19 10:41:10;;;;;;;1999.90;999.90;;;;;;;11.27;48.30;101433.06;5047849;27;96865;-68
2021/10/19 10:43:38;;;;;;;1999.90;999.90;;;;;;;11.34;48.24;101440.44;5061107;27;100532;-70
2021/10/19 10:46:08;;;;;;;1999.90;999.90;;;;;;;11.38;48.32;101425.44;5060372;27;99039;-69
2021/10/19 10:48:37;;;;;;;1999.90;999.90;;;;;;;11.42;48.10;101424.63;5062436;27;97483;-69
2021/10/19 10:51:06;;;;;;;1999.90;999.90;;;;;;;11.46;48.22;101415.88;5063292;27;96766;-69
2021/10/19 10:53:36;;;;;;;1999.90;999.90;;;;;;;11.51;48.19;101398.22;5041633;27;100650;-70
2021/10/19 10:56:05;;;;;;;1999.90;999.90;;;;;;;11.55;48.25;101401.03;5061875;27;97664;-70
2021/10/19 10:58:35;;;;;;;1999.90;999.90;;;;;;;11.58;48.04;101392.22;5044048;27;97194;-69